Council Bluffs, Iowa
Current Conditions -  °F | °C
As of 6:52 PM on Sunday 23 Nov 2014 (Local Time) from KOMA Reporting Station
Broken Clouds Broken Clouds  
Wind Chill: 35°   Ceiling: 4400
Heat Index: 44°   Visibility: 10mi
Dew Point: 30°   Wind: 24mph
Humidity: 58%   Direction: 330°NNW
Pressure: 29.54"   Gusts: 32mph
Location:  41.26°N, 95.85°W
Report Text: KOMA 240052Z 33021G28KT 10SM BKN044 BKN180 07/M01 A2954 RMK AO2 PK WND 33031/0035 SLP003 T00671011
Loading
Personal Weather Stations






























Interactive Weather Map New forecast layout! Learn more

10-Day Weather Forecast

Advertisements
Track Severe Weather on mobile